createdAt,value
2018-07-17T00:00:36.409Z,96.22
2018-07-17T00:01:36.334Z,95.94
2018-07-17T00:02:36.254Z,96.03
2018-07-17T00:03:36.185Z,96.90
2018-07-17T00:04:36.097Z,96.70
2018-07-17T00:05:36.021Z,96.51
2018-07-17T00:06:35.942Z,97.19
2018-07-17T00:07:35.905Z,96.99
2018-07-17T00:08:35.793Z,96.80
2018-07-17T00:09:35.721Z,96.80
2018-07-17T00:10:35.637Z,96.80
2018-07-17T00:11:35.562Z,96.61
2018-07-17T00:12:35.511Z,97.19
2018-07-17T00:13:35.407Z,96.80
2018-07-17T00:14:35.321Z,96.90
2018-07-17T00:15:35.247Z,96.32
2018-07-17T00:16:35.174Z,96.80
2018-07-17T00:17:35.099Z,97.19
2018-07-17T00:18:35.009Z,97.09
2018-07-17T00:19:34.933Z,96.90
2018-07-17T00:20:34.862Z,96.66
2018-07-17T00:21:34.785Z,96.90
2018-07-17T00:22:34.695Z,96.85
2018-07-17T00:23:34.618Z,97.33
2018-07-17T00:24:34.546Z,96.85
2018-07-17T00:25:34.471Z,97.33
2018-07-17T00:26:34.400Z,97.33
2018-07-17T00:27:34.313Z,96.85
2018-07-17T00:28:34.232Z,97.81
2018-07-17T00:29:34.158Z,97.91
2018-07-17T00:30:34.087Z,98.00
2018-07-17T00:31:34.012Z,98.00
2018-07-17T00:32:33.925Z,97.81
2018-07-17T00:33:33.867Z,97.62
2018-07-17T00:34:33.772Z,97.42
2018-07-17T00:35:33.696Z,98.00
2018-07-17T00:36:33.614Z,97.71
2018-07-17T00:37:33.539Z,97.91
2018-07-17T00:38:33.461Z,97.42
2018-07-17T00:39:33.385Z,97.33
2018-07-17T00:40:33.295Z,97.52
2018-07-17T00:41:33.221Z,97.52
2018-07-17T00:42:33.149Z,97.42
2018-07-17T00:43:33.074Z,97.71
2018-07-17T00:44:32.986Z,97.71
2018-07-17T00:45:32.911Z,97.42
2018-07-17T00:46:32.840Z,97.42
2018-07-17T00:47:32.766Z,97.91
2018-07-17T00:48:32.677Z,98.24
2018-07-17T00:49:32.600Z,97.66
2018-07-17T00:50:32.522Z,98.10
2018-07-17T00:51:32.460Z,98.10
2018-07-17T00:52:32.364Z,97.71
2018-07-17T00:53:32.291Z,97.71
2018-07-17T00:54:32.209Z,97.71
2018-07-17T00:55:32.148Z,97.52
2018-07-17T00:56:32.050Z,97.66
2018-07-17T00:57:31.974Z,97.42
2018-07-17T00:58:31.904Z,97.71
2018-07-17T00:59:31.828Z,97.81
2018-07-17T01:00:31.747Z,97.71
2018-07-17T01:01:31.661Z,97.71
2018-07-17T01:02:31.590Z,97.52
2018-07-17T01:03:31.519Z,97.91
2018-07-17T01:04:31.431Z,97.91
2018-07-17T01:05:31.355Z,97.14
2018-07-17T01:06:31.288Z,97.52
2018-07-17T01:07:31.201Z,97.66
2018-07-17T01:08:31.122Z,97.47
2018-07-17T01:09:31.054Z,97.71
2018-07-17T01:10:30.964Z,97.81
2018-07-17T01:11:30.888Z,97.76
2018-07-17T01:12:30.800Z,97.66
2018-07-17T01:13:30.725Z,97.52
2018-07-17T01:14:30.653Z,97.62
2018-07-17T01:15:30.578Z,97.66
2018-07-17T01:16:30.491Z,97.19
2018-07-17T01:17:30.416Z,97.66
2018-07-17T01:18:30.344Z,97.76
2018-07-17T01:19:30.269Z,97.38
2018-07-17T01:20:30.191Z,97.66
2018-07-17T01:21:30.104Z,97.86
2018-07-17T01:22:30.042Z,97.66
2018-07-17T01:23:29.950Z,98.24
2018-07-17T01:24:29.866Z,97.76
2018-07-17T01:25:29.788Z,97.66
2018-07-17T01:26:29.718Z,97.57
2018-07-17T01:27:29.642Z,97.57
2018-07-17T01:28:29.571Z,97.47
2018-07-17T01:29:29.482Z,97.86
2018-07-17T01:30:29.416Z,97.38
2018-07-17T01:31:29.330Z,98.24
2018-07-17T01:32:29.243Z,98.43
2018-07-17T01:33:29.169Z,97.96
2018-07-17T01:34:29.089Z,97.86
2018-07-17T01:35:29.014Z,97.96
2018-07-17T01:36:28.928Z,98.05
2018-07-17T01:37:28.854Z,98.43
2018-07-17T01:38:28.847Z,98.05
2018-07-17T01:39:28.697Z,97.66
2018-07-17T01:40:28.622Z,97.96
2018-07-17T01:41:28.542Z,98.05
2018-07-17T01:42:28.472Z,98.63
2018-07-17T01:43:28.384Z,98.05
2018-07-17T01:44:28.307Z,97.76
2018-07-17T01:45:28.231Z,98.24
2018-07-17T01:46:28.152Z,98.05
2018-07-17T01:47:28.065Z,97.47
2018-07-17T01:48:27.997Z,98.24
2018-07-17T01:49:27.922Z,98.24
2018-07-17T01:50:27.847Z,98.14
2018-07-17T01:51:27.755Z,98.43
2018-07-17T01:52:27.678Z,98.24
2018-07-17T01:53:27.605Z,98.63
2018-07-17T01:54:27.520Z,98.34
2018-07-17T01:55:27.445Z,98.43
2018-07-17T01:56:27.370Z,98.34
2018-07-17T01:57:27.291Z,97.96
2018-07-17T01:58:27.208Z,98.53
2018-07-17T01:59:27.134Z,98.14
2018-07-17T02:00:27.061Z,98.43
2018-07-17T02:01:26.985Z,98.24
2018-07-17T02:02:26.894Z,98.24
2018-07-17T02:03:26.819Z,97.86
2018-07-17T02:04:26.746Z,98.34
2018-07-17T02:05:26.673Z,98.24
2018-07-17T02:06:26.580Z,98.14
2018-07-17T02:07:26.505Z,98.53
2018-07-17T02:08:26.445Z,98.34
2018-07-17T02:09:26.363Z,98.24
2018-07-17T02:10:26.282Z,98.24
2018-07-17T02:11:26.198Z,98.24
2018-07-17T02:12:26.121Z,98.24
2018-07-17T02:13:26.045Z,97.66
2018-07-17T02:14:25.961Z,98.34
2018-07-17T02:15:25.886Z,98.14
2018-07-17T02:16:25.810Z,98.34
2018-07-17T02:17:25.723Z,98.05
2018-07-17T02:18:25.646Z,98.24
2018-07-17T02:19:25.578Z,98.24
2018-07-17T02:20:25.501Z,98.24
2018-07-17T02:21:25.426Z,97.76
2018-07-17T02:22:25.346Z,97.76
2018-07-17T02:23:25.258Z,97.86
2018-07-17T02:24:25.181Z,97.76
2018-07-17T02:25:25.094Z,97.96
2018-07-17T02:26:25.024Z,98.53
2018-07-17T02:27:24.949Z,97.96
2018-07-17T02:28:24.870Z,98.34
2018-07-17T02:29:24.784Z,98.43
2018-07-17T02:30:24.713Z,98.05
2018-07-17T02:31:24.638Z,98.24
2018-07-17T02:32:24.562Z,98.05
2018-07-17T02:33:24.475Z,97.96
2018-07-17T02:34:24.396Z,98.43
2018-07-17T02:35:24.309Z,98.34
2018-07-17T02:36:24.239Z,98.43
2018-07-17T02:37:24.164Z,98.24
2018-07-17T02:38:24.087Z,98.14
2018-07-17T02:39:23.997Z,98.05
2018-07-17T02:40:23.921Z,98.05
2018-07-17T02:41:23.846Z,98.34
2018-07-17T02:42:23.831Z,97.66
2018-07-17T02:43:23.687Z,97.86
2018-07-17T02:44:23.608Z,98.43
2018-07-17T02:45:23.533Z,97.76
2018-07-17T02:46:23.462Z,97.96
2018-07-17T02:47:23.378Z,97.86
2018-07-17T02:48:23.303Z,98.05
2018-07-17T02:49:23.228Z,98.05
2018-07-17T02:50:23.136Z,97.61
2018-07-17T02:51:23.062Z,98.05
2018-07-17T02:52:23.011Z,97.91
2018-07-17T02:53:22.935Z,97.86
2018-07-17T02:54:22.822Z,97.81
2018-07-17T02:55:22.750Z,97.66
2018-07-17T02:56:22.676Z,98.34
2018-07-17T02:57:22.599Z,98.43
2018-07-17T02:58:22.538Z,97.66
2018-07-17T02:59:22.441Z,98.24
2018-07-17T03:00:22.362Z,98.05
2018-07-17T03:01:22.275Z,97.96
2018-07-17T03:02:22.204Z,97.96
2018-07-17T03:03:22.129Z,97.66
2018-07-17T03:04:22.053Z,97.96
2018-07-17T03:05:21.964Z,98.05
2018-07-17T03:06:21.886Z,97.96
2018-07-17T03:07:21.811Z,97.66
2018-07-17T03:08:21.755Z,97.76
2018-07-17T03:09:21.655Z,97.76
2018-07-17T03:10:21.576Z,98.05
2018-07-17T03:11:21.502Z,97.66
2018-07-17T03:12:21.411Z,97.86
2018-07-17T03:13:21.349Z,97.96
2018-07-17T03:14:21.265Z,97.96
2018-07-17T03:15:21.190Z,97.86
2018-07-17T03:16:21.111Z,97.86
2018-07-17T03:17:21.025Z,97.86
2018-07-17T03:18:20.953Z,98.14
2018-07-17T03:19:20.878Z,97.86
2018-07-17T03:20:20.797Z,97.57
2018-07-17T03:21:20.718Z,97.66
2018-07-17T03:22:20.651Z,97.57
2018-07-17T03:23:20.553Z,97.38
2018-07-17T03:24:20.480Z,97.28
2018-07-17T03:25:20.407Z,96.99
2018-07-17T03:26:20.326Z,97.96
2018-07-17T03:27:20.251Z,97.66
2018-07-17T03:28:20.168Z,97.38
2018-07-17T03:29:20.090Z,97.86
2018-07-17T03:30:20.020Z,97.66
2018-07-17T03:31:19.932Z,97.47
2018-07-17T03:32:19.852Z,97.19
2018-07-17T03:33:19.778Z,96.89
2018-07-17T03:34:19.705Z,97.86
2018-07-17T03:35:19.617Z,97.76
2018-07-17T03:36:19.555Z,97.47
2018-07-17T03:37:19.470Z,97.33
2018-07-17T03:38:19.379Z,96.94
2018-07-17T03:39:19.304Z,97.19
2018-07-17T03:40:19.233Z,97.04
2018-07-17T03:41:19.157Z,97.52
2018-07-17T03:42:19.065Z,97.33
2018-07-17T03:43:18.992Z,96.94
2018-07-17T03:44:18.916Z,97.33
2018-07-17T03:45:18.842Z,96.94
2018-07-17T03:46:18.759Z,97.71
2018-07-17T03:47:18.686Z,97.28
2018-07-17T03:48:18.606Z,97.47
2018-07-17T03:49:18.563Z,97.47
2018-07-17T03:50:18.448Z,97.47
2018-07-17T03:51:18.371Z,97.04
2018-07-17T03:52:18.296Z,97.28
2018-07-17T03:53:18.220Z,96.80
2018-07-17T03:54:18.129Z,96.51
2018-07-17T03:55:18.053Z,97.09
2018-07-17T03:56:17.986Z,97.38
2018-07-17T03:57:17.909Z,96.90
2018-07-17T03:58:17.835Z,96.80
2018-07-17T03:59:17.744Z,96.80
2018-07-17T04:00:17.667Z,97.67
2018-07-17T04:01:17.592Z,96.61
2018-07-17T04:02:17.522Z,97.09
2018-07-17T04:03:17.435Z,96.70
2018-07-17T04:04:17.406Z,96.90
2018-07-17T04:05:17.307Z,97.38
2018-07-17T04:06:17.209Z,96.90
2018-07-17T04:07:17.121Z,96.51
2018-07-17T04:08:17.049Z,96.99
2018-07-17T04:09:16.974Z,96.51
2018-07-17T04:10:16.903Z,96.90
2018-07-17T04:11:16.808Z,96.99
2018-07-17T04:12:16.735Z,96.32
2018-07-17T04:13:16.712Z,96.42
2018-07-17T04:14:16.581Z,96.42
2018-07-17T04:15:16.506Z,96.99
2018-07-17T04:16:16.434Z,96.51
2018-07-17T04:17:16.345Z,96.03
2018-07-17T04:18:16.274Z,96.51
2018-07-17T04:19:16.200Z,96.99
2018-07-17T04:20:16.108Z,96.42
2018-07-17T04:21:16.035Z,96.32
2018-07-17T04:22:15.963Z,96.13
2018-07-17T04:23:15.888Z,96.61
2018-07-17T04:24:15.814Z,96.56
2018-07-17T04:25:15.723Z,96.66
2018-07-17T04:26:15.644Z,96.75
2018-07-17T04:27:15.582Z,96.85
2018-07-17T04:28:15.502Z,96.56
2018-07-17T04:29:15.419Z,96.85
2018-07-17T04:30:15.335Z,96.47
2018-07-17T04:31:15.260Z,96.56
2018-07-17T04:32:15.183Z,97.04
2018-07-17T04:33:15.114Z,96.27
2018-07-17T04:34:15.027Z,96.17
2018-07-17T04:35:14.949Z,95.98
2018-07-17T04:36:14.886Z,96.66
2018-07-17T04:37:14.797Z,96.27
2018-07-17T04:38:14.738Z,95.98
2018-07-17T04:39:14.640Z,96.17
2018-07-17T04:40:14.564Z,95.74
2018-07-17T04:41:14.488Z,96.89
2018-07-17T04:42:14.409Z,96.17
2018-07-17T04:43:14.334Z,95.94
2018-07-17T04:44:14.309Z,96.22
2018-07-17T04:45:14.178Z,95.74
2018-07-17T04:46:14.099Z,96.80
2018-07-17T04:47:14.024Z,95.94
2018-07-17T04:48:13.946Z,96.03
2018-07-17T04:49:13.872Z,95.94
2018-07-17T04:50:13.789Z,96.12
2018-07-17T04:51:13.714Z,95.89
2018-07-17T04:52:13.635Z,95.50
2018-07-17T04:53:13.563Z,96.08
2018-07-17T04:54:13.490Z,95.50
2018-07-17T04:55:13.403Z,96.08
2018-07-17T04:56:13.329Z,96.08
2018-07-17T04:57:13.254Z,95.98
2018-07-17T04:58:13.188Z,95.50
2018-07-17T04:59:13.099Z,95.69
2018-07-17T05:00:13.027Z,95.60
2018-07-17T05:01:12.952Z,95.79
2018-07-17T05:02:12.862Z,95.40
2018-07-17T05:03:12.787Z,96.17
2018-07-17T05:04:12.713Z,95.98
2018-07-17T05:05:12.639Z,95.98
2018-07-17T05:06:12.568Z,95.69
2018-07-17T05:07:12.492Z,94.92
2018-07-17T05:08:12.401Z,95.31
2018-07-17T05:09:12.338Z,95.02
2018-07-17T05:10:12.255Z,96.08
2018-07-17T05:11:12.179Z,95.40
2018-07-17T05:12:12.103Z,95.12
2018-07-17T05:13:12.029Z,95.84
2018-07-17T05:14:11.951Z,95.26
2018-07-17T05:15:11.863Z,94.68
2018-07-17T05:16:11.793Z,96.12
2018-07-17T05:17:11.717Z,95.64
2018-07-17T05:18:11.640Z,96.51
2018-07-17T05:19:11.565Z,95.36
2018-07-17T05:20:11.536Z,95.64
2018-07-17T05:21:11.412Z,95.94
2018-07-17T05:22:11.376Z,94.78
2018-07-17T05:23:11.254Z,96.03
2018-07-17T05:24:11.174Z,95.07
2018-07-17T05:25:11.099Z,95.07
2018-07-17T05:26:11.033Z,94.68
2018-07-17T05:27:10.953Z,95.07
2018-07-17T05:28:10.880Z,94.49
2018-07-17T05:29:10.806Z,94.87
2018-07-17T05:30:10.739Z,95.07
2018-07-17T05:31:10.640Z,95.02
2018-07-17T05:32:10.567Z,95.11
2018-07-17T05:33:10.503Z,95.50
2018-07-17T05:34:10.414Z,95.21
2018-07-17T05:35:10.364Z,95.89
2018-07-17T05:36:10.265Z,94.92
2018-07-17T05:37:10.190Z,95.69
2018-07-17T05:38:10.120Z,95.79
2018-07-17T05:39:10.045Z,95.59
2018-07-17T05:40:09.960Z,95.11
2018-07-17T05:41:09.894Z,93.96
2018-07-17T05:42:09.802Z,95.11
2018-07-17T05:43:09.741Z,95.50
2018-07-17T05:44:09.651Z,94.54
2018-07-17T05:45:09.575Z,94.44
2018-07-17T05:46:09.505Z,94.44
2018-07-17T05:47:09.431Z,94.82
2018-07-17T05:48:09.353Z,95.02
2018-07-17T05:49:09.278Z,94.54
2018-07-17T05:50:09.207Z,94.15
2018-07-17T05:51:09.121Z,94.73
2018-07-17T05:52:09.044Z,95.02
2018-07-17T05:53:08.970Z,94.73
2018-07-17T05:54:08.937Z,95.50
2018-07-17T05:55:08.815Z,95.11
2018-07-17T05:56:08.744Z,94.63
2018-07-17T05:57:08.669Z,94.92
2018-07-17T05:58:08.591Z,95.02
2018-07-17T05:59:08.516Z,94.20
2018-07-17T06:00:08.431Z,93.96
2018-07-17T06:01:08.355Z,94.87
2018-07-17T06:02:08.283Z,94.54
2018-07-17T06:03:08.209Z,94.68
2018-07-17T06:04:08.129Z,94.48
2018-07-17T06:05:08.053Z,94.68
2018-07-17T06:06:07.996Z,94.10
2018-07-17T06:07:07.909Z,94.58
2018-07-17T06:08:07.834Z,95.06
2018-07-17T06:09:07.759Z,93.91
2018-07-17T06:10:07.686Z,94.29
2018-07-17T06:11:07.605Z,94.48
2018-07-17T06:12:07.535Z,94.39
2018-07-17T06:13:07.448Z,94.68
2018-07-17T06:14:07.370Z,94.39
2018-07-17T06:15:07.294Z,94.00
2018-07-17T06:16:07.221Z,93.85
2018-07-17T06:17:07.144Z,94.05
2018-07-17T06:18:07.073Z,93.76
2018-07-17T06:19:07.014Z,94.05
2018-07-17T06:20:06.920Z,93.18
2018-07-17T06:21:06.847Z,92.99
2018-07-17T06:22:06.845Z,93.76
2018-07-17T06:23:06.701Z,93.18
2018-07-17T06:24:06.623Z,93.47
2018-07-17T06:25:06.605Z,93.32
2018-07-17T06:26:06.458Z,93.04
2018-07-17T06:27:06.383Z,92.26
2018-07-17T06:28:06.323Z,91.97
2018-07-17T06:29:06.236Z,91.88
2018-07-17T06:30:06.157Z,92.26
2018-07-17T06:31:06.082Z,91.49
2018-07-17T06:32:06.015Z,91.15
2018-07-17T06:33:06.009Z,91.53
2018-07-17T06:34:05.863Z,91.15
2018-07-17T06:35:05.791Z,90.86
2018-07-17T06:36:05.710Z,90.77
2018-07-17T06:37:05.632Z,90.42
2018-07-17T06:38:05.561Z,90.03
2018-07-17T06:39:05.486Z,88.83
2018-07-17T06:40:05.414Z,87.67
2018-07-17T06:41:05.339Z,88.59
2018-07-17T06:42:05.259Z,87.91
2018-07-17T06:43:05.184Z,88.10
2018-07-17T06:44:05.112Z,87.91
2018-07-17T06:45:05.037Z,87.13
2018-07-17T06:46:04.958Z,86.65
2018-07-17T06:47:04.883Z,87.23
2018-07-17T06:48:04.811Z,85.78
2018-07-17T06:49:04.737Z,84.82
2018-07-17T06:50:04.676Z,85.21
2018-07-17T06:51:04.603Z,85.15
2018-07-17T06:52:04.522Z,84.86
2018-07-17T06:53:04.448Z,84.95
2018-07-17T06:54:04.377Z,85.05
2018-07-17T06:55:04.303Z,84.38
2018-07-17T06:56:04.230Z,84.28
2018-07-17T06:57:04.156Z,85.25
2018-07-17T06:58:04.075Z,84.90
2018-07-17T06:59:04.009Z,84.42
2018-07-17T07:00:03.930Z,84.13
2018-07-17T07:01:03.855Z,83.64
2018-07-17T07:02:03.776Z,82.20
2018-07-17T07:03:03.704Z,82.48
2018-07-17T07:04:03.636Z,83.26
2018-07-17T07:05:03.562Z,84.32
2018-07-17T07:06:03.491Z,84.27
2018-07-17T07:07:03.416Z,84.27
2018-07-17T07:08:03.338Z,82.10
2018-07-17T07:09:03.264Z,82.39
2018-07-17T07:10:03.192Z,83.36
2018-07-17T07:11:03.118Z,82.81
2018-07-17T07:12:03.041Z,84.27
2018-07-17T07:13:02.967Z,84.75
2018-07-17T07:14:02.899Z,84.56
2018-07-17T07:15:02.826Z,84.99
2018-07-17T07:16:02.750Z,81.27
2018-07-17T07:17:02.675Z,80.49
2018-07-17T07:18:02.600Z,80.59
2018-07-17T07:19:02.525Z,81.60
2018-07-17T07:20:02.453Z,79.91
2018-07-17T07:21:02.390Z,79.24
2018-07-17T07:22:02.314Z,79.43
2018-07-17T07:23:02.239Z,82.08
2018-07-17T07:24:02.162Z,83.05
2018-07-17T07:25:02.091Z,79.47
2018-07-17T07:26:02.013Z,77.34
2018-07-17T07:27:01.939Z,78.21
2018-07-17T07:28:01.879Z,82.95
2018-07-17T07:29:01.804Z,80.34
2018-07-17T07:30:01.729Z,79.37
2018-07-17T07:31:01.670Z,77.53
2018-07-17T07:32:01.580Z,77.82
2018-07-17T07:33:01.520Z,79.76
2018-07-17T07:34:01.460Z,77.14
2018-07-17T07:35:01.368Z,78.59
2018-07-17T07:36:01.289Z,77.76
2018-07-17T07:37:01.214Z,76.31
2018-07-17T07:38:01.140Z,74.57
2018-07-17T07:39:01.066Z,75.79
2018-07-17T07:40:01.005Z,77.14
2018-07-17T07:41:00.929Z,74.76
2018-07-17T07:42:00.856Z,73.41
2018-07-17T07:43:00.780Z,73.99
2018-07-17T07:44:00.714Z,72.18
2018-07-17T07:45:00.640Z,71.50
2018-07-17T07:46:00.565Z,72.31
2018-07-17T07:47:00.495Z,69.44
2018-07-17T07:48:00.416Z,69.34
2018-07-17T07:49:00.354Z,66.82
2018-07-17T07:50:00.283Z,64.62
2018-07-17T07:51:00.204Z,66.95
2018-07-17T07:52:00.132Z,66.53
2018-07-17T07:53:00.068Z,64.78
2018-07-17T07:53:59.992Z,65.75
2018-07-17T07:54:59.921Z,66.44
2018-07-17T07:55:59.854Z,66.63
2018-07-17T07:56:59.780Z,65.89
2018-07-17T07:57:59.704Z,66.08
2018-07-17T07:58:59.641Z,66.40
2018-07-17T07:59:59.581Z,63.62
2018-07-17T08:00:59.496Z,64.56
2018-07-17T08:01:59.421Z,65.14
2018-07-17T08:02:59.358Z,64.56
2018-07-17T08:03:59.293Z,64.92
2018-07-17T08:04:59.219Z,63.65
2018-07-17T08:05:59.144Z,66.17
2018-07-17T08:06:59.072Z,64.72
2018-07-17T08:07:59.009Z,65.08
2018-07-17T08:08:58.931Z,65.56
2018-07-17T08:09:58.856Z,66.34
2018-07-17T08:10:58.794Z,66.44
2018-07-17T08:11:58.740Z,64.47
2018-07-17T08:12:58.648Z,65.47
2018-07-17T08:13:58.583Z,64.59
2018-07-17T08:14:58.514Z,62.98
2018-07-17T08:15:58.444Z,62.29
2018-07-17T08:16:58.370Z,61.71
2018-07-17T08:17:58.293Z,62.81
2018-07-17T08:18:58.236Z,62.35
2018-07-17T08:19:58.161Z,61.12
2018-07-17T08:20:58.083Z,60.67
2018-07-17T08:21:58.039Z,59.41
2018-07-17T08:22:57.945Z,58.75
2018-07-17T08:23:57.884Z,59.43
2018-07-17T08:24:57.810Z,58.85
2018-07-17T08:25:57.748Z,57.87
2018-07-17T08:26:57.673Z,57.39
2018-07-17T08:27:57.595Z,58.07
2018-07-17T08:28:57.534Z,56.51
2018-07-17T08:29:57.459Z,56.20
2018-07-17T08:30:57.395Z,57.36
2018-07-17T08:31:57.326Z,56.68
2018-07-17T08:32:57.261Z,55.80
2018-07-17T08:33:57.186Z,56.85
2018-07-17T08:34:57.123Z,58.14
2018-07-17T08:35:57.061Z,56.71
2018-07-17T08:36:56.986Z,57.42
2018-07-17T08:37:56.922Z,55.15
2018-07-17T08:38:56.861Z,55.66
2018-07-17T08:39:56.772Z,55.66
2018-07-17T08:40:56.710Z,54.44
2018-07-17T08:41:56.646Z,56.03
2018-07-17T08:42:56.571Z,55.64
2018-07-17T08:43:56.512Z,55.83
2018-07-17T08:44:56.436Z,55.27
2018-07-17T08:45:56.376Z,54.79
2018-07-17T08:46:56.299Z,53.99
2018-07-17T08:47:56.235Z,55.18
2018-07-17T08:48:56.172Z,54.03
2018-07-17T08:49:56.097Z,54.03
2018-07-17T08:50:56.036Z,54.52
2018-07-17T08:51:55.963Z,53.06
2018-07-17T08:52:55.899Z,52.67
2018-07-17T08:53:55.825Z,53.26
2018-07-17T08:54:55.763Z,54.03
2018-07-17T08:55:55.697Z,53.16
2018-07-17T08:56:55.623Z,53.28
2018-07-17T08:57:55.561Z,53.11
2018-07-17T08:58:55.511Z,52.26
2018-07-17T08:59:55.425Z,50.56
2018-07-17T09:00:55.366Z,49.98
2018-07-17T09:01:55.288Z,48.71
2018-07-17T09:02:55.225Z,48.58
2018-07-17T09:03:55.161Z,48.93
2018-07-17T09:04:55.087Z,48.34
2018-07-17T09:05:55.059Z,46.88
2018-07-17T09:06:54.966Z,46.21
2018-07-17T09:07:54.912Z,47.09
2018-07-17T09:08:54.824Z,45.82
2018-07-17T09:09:54.762Z,46.00
2018-07-17T09:10:54.714Z,45.92
2018-07-17T09:11:54.632Z,46.48
2018-07-17T09:12:54.566Z,45.70
2018-07-17T09:13:54.515Z,46.97
2018-07-17T09:14:54.443Z,47.07
2018-07-17T09:15:54.363Z,45.90
2018-07-17T09:16:54.313Z,46.11
2018-07-17T09:17:54.239Z,44.79
2018-07-17T09:18:54.175Z,44.59
2018-07-17T09:19:54.115Z,45.50
2018-07-17T09:20:54.043Z,44.79
2018-07-17T09:21:53.979Z,44.38
2018-07-17T09:22:53.918Z,45.16
2018-07-17T09:23:53.854Z,44.35
2018-07-17T09:24:53.792Z,44.77
2018-07-17T09:25:53.716Z,44.53
2018-07-17T09:26:53.654Z,45.21
2018-07-17T09:27:53.601Z,45.78
2018-07-17T09:28:53.539Z,45.29
2018-07-17T09:29:53.469Z,45.31
2018-07-17T09:30:53.404Z,45.06
2018-07-17T09:31:53.342Z,45.55
2018-07-17T09:32:53.268Z,45.80
2018-07-17T09:33:53.217Z,46.58
2018-07-17T09:34:53.142Z,45.41
2018-07-17T09:35:53.077Z,45.61
2018-07-17T09:36:53.015Z,44.70
2018-07-17T09:37:52.952Z,46.78
2018-07-17T09:38:52.931Z,46.14
2018-07-17T09:39:52.815Z,45.16
2018-07-17T09:40:52.753Z,45.43
2018-07-17T09:41:52.694Z,45.43
2018-07-17T09:42:52.628Z,47.07
2018-07-17T09:43:52.568Z,45.97
2018-07-17T09:44:52.505Z,47.02
2018-07-17T09:45:52.443Z,47.97
2018-07-17T09:46:52.368Z,49.90
2018-07-17T09:47:52.303Z,49.05
2018-07-17T09:48:52.241Z,49.58
2018-07-17T09:49:52.179Z,50.19
2018-07-17T09:50:52.121Z,50.36
2018-07-17T09:51:52.055Z,50.63
2018-07-17T09:52:51.984Z,51.12
2018-07-17T09:53:51.919Z,51.70
2018-07-17T09:54:51.855Z,50.97
2018-07-17T09:55:51.796Z,49.80
2018-07-17T09:56:51.723Z,50.48
2018-07-17T09:57:51.656Z,50.97
2018-07-17T09:58:51.596Z,49.80
2018-07-17T09:59:51.518Z,49.61
2018-07-17T10:00:51.455Z,48.83
2018-07-17T10:01:51.392Z,49.90
2018-07-17T10:02:51.319Z,48.17
2018-07-17T10:03:51.256Z,47.02
2018-07-17T10:04:51.199Z,48.14
2018-07-17T10:05:51.169Z,46.97
2018-07-17T10:06:51.056Z,45.51
2018-07-17T10:07:50.992Z,45.36
2018-07-17T10:08:50.917Z,45.36
2018-07-17T10:09:50.855Z,46.33
2018-07-17T10:10:50.791Z,45.84
2018-07-17T10:11:50.718Z,45.23
2018-07-17T10:12:50.654Z,45.30
2018-07-17T10:13:50.582Z,44.91
2018-07-17T10:14:50.519Z,45.92
2018-07-17T10:15:50.458Z,47.14
2018-07-17T10:16:50.385Z,48.22
2018-07-17T10:17:50.323Z,49.46
2018-07-17T10:18:50.258Z,50.63
2018-07-17T10:19:50.244Z,49.68
2018-07-17T10:20:50.123Z,49.07
2018-07-17T10:21:50.081Z,48.29
2018-07-17T10:22:49.982Z,48.10
2018-07-17T10:23:49.922Z,48.10
2018-07-17T10:24:49.848Z,48.56
2018-07-17T10:25:49.784Z,49.66
2018-07-17T10:26:49.734Z,49.66
2018-07-17T10:27:49.649Z,47.49
2018-07-17T10:28:49.597Z,48.17
2018-07-17T10:29:49.511Z,48.44
2018-07-17T10:30:49.450Z,49.05
2018-07-17T10:31:49.383Z,48.63
2018-07-17T10:32:49.308Z,49.51
2018-07-17T10:33:49.246Z,49.05
2018-07-17T10:34:49.173Z,48.54
2018-07-17T10:35:49.111Z,48.93
2018-07-17T10:36:49.036Z,50.58
2018-07-17T10:37:48.974Z,48.93
2018-07-17T10:38:48.900Z,48.34
2018-07-17T10:39:48.839Z,49.80
2018-07-17T10:40:48.771Z,48.51
2018-07-17T10:41:48.697Z,48.10
2018-07-17T10:42:48.637Z,49.00
2018-07-17T10:43:48.561Z,48.90
2018-07-17T10:44:48.498Z,49.10
2018-07-17T10:45:48.423Z,48.36
2018-07-17T10:46:48.359Z,48.27
2018-07-17T10:47:48.288Z,48.14
2018-07-17T10:48:48.226Z,46.23
2018-07-17T10:49:48.163Z,45.57
2018-07-17T10:50:48.100Z,45.20
2018-07-17T10:51:48.012Z,44.91
2018-07-17T10:52:47.949Z,43.44
2018-07-17T10:53:47.874Z,43.73
2018-07-17T10:54:47.811Z,43.73
2018-07-17T10:55:47.739Z,43.07
2018-07-17T10:56:47.678Z,42.13
2018-07-17T10:57:47.603Z,42.29
2018-07-17T10:58:47.552Z,42.17
2018-07-17T10:59:47.475Z,42.58
2018-07-17T11:00:47.435Z,42.38
2018-07-17T11:01:47.338Z,42.15
2018-07-17T11:02:47.275Z,41.29
2018-07-17T11:03:47.214Z,42.00
2018-07-17T11:04:47.139Z,40.80
2018-07-17T11:05:47.078Z,40.03
2018-07-17T11:06:47.016Z,38.64
2018-07-17T11:07:46.955Z,39.94
2018-07-17T11:08:46.880Z,40.43
2018-07-17T11:09:46.813Z,39.27
2018-07-17T11:10:46.751Z,38.58
2018-07-17T11:11:46.690Z,38.56
2018-07-17T11:12:46.628Z,39.54
2018-07-17T11:13:46.623Z,40.13
2018-07-17T11:14:46.503Z,40.94
2018-07-17T11:15:46.453Z,39.14
2018-07-17T11:16:46.382Z,39.80
2018-07-17T11:17:46.303Z,39.51
2018-07-17T11:18:46.254Z,38.06
2018-07-17T11:19:46.183Z,38.25
2018-07-17T11:20:46.113Z,38.72
2018-07-17T11:21:46.053Z,38.45
2018-07-17T11:22:45.989Z,38.56
2018-07-17T11:23:45.931Z,38.23
2018-07-17T11:24:45.866Z,39.72
2018-07-17T11:25:45.804Z,38.54
2018-07-17T11:26:45.742Z,39.23
2018-07-17T11:27:45.678Z,38.15
2018-07-17T11:28:45.616Z,38.25
2018-07-17T11:29:45.553Z,38.15
2018-07-17T11:30:45.491Z,38.15
2018-07-17T11:31:45.432Z,38.46
2018-07-17T11:32:45.378Z,37.82
2018-07-17T11:33:45.303Z,40.08
2018-07-17T11:34:45.241Z,39.88
2018-07-17T11:35:45.182Z,39.82
2018-07-17T11:36:45.118Z,39.33
2018-07-17T11:37:45.056Z,39.72
2018-07-17T11:38:45.032Z,38.54
2018-07-17T11:39:44.931Z,38.76
2018-07-17T11:40:44.866Z,39.53
2018-07-17T11:41:44.804Z,39.15
2018-07-17T11:42:44.741Z,39.03
2018-07-17T11:43:44.683Z,38.46
2018-07-17T11:44:44.620Z,37.40
2018-07-17T11:45:44.565Z,36.90
2018-07-17T11:46:44.494Z,37.37
2018-07-17T11:47:44.497Z,38.29
2018-07-17T11:48:44.369Z,36.49
2018-07-17T11:49:44.309Z,37.38
2018-07-17T11:50:44.248Z,38.62
2018-07-17T11:51:44.179Z,38.20
2018-07-17T11:52:44.130Z,38.49
2018-07-17T11:53:44.060Z,38.60
2018-07-17T11:54:43.992Z,38.21
2018-07-17T11:55:43.933Z,38.06
2018-07-17T11:56:43.872Z,37.65
2018-07-17T11:57:43.812Z,38.04
2018-07-17T11:58:43.760Z,39.84
2018-07-17T11:59:43.693Z,40.48
2018-07-17T12:00:43.632Z,40.03
2018-07-17T12:01:43.569Z,38.48
2018-07-17T12:02:43.506Z,37.92
2018-07-17T12:03:43.443Z,37.82
2018-07-17T12:04:43.382Z,37.54
2018-07-17T12:05:43.385Z,35.87
2018-07-17T12:06:43.258Z,35.78
2018-07-17T12:07:43.195Z,35.20
2018-07-17T12:08:43.133Z,35.80
2018-07-17T12:09:43.126Z,34.92
2018-07-17T12:10:43.009Z,34.01
2018-07-17T12:11:42.943Z,33.07
2018-07-17T12:12:42.939Z,33.38
2018-07-17T12:13:42.831Z,33.80
2018-07-17T12:14:42.760Z,32.95
2018-07-17T12:15:42.695Z,32.97
2018-07-17T12:16:42.633Z,34.61
2018-07-17T12:17:42.571Z,34.49
2018-07-17T12:18:42.509Z,35.67
2018-07-17T12:19:42.482Z,36.03
2018-07-17T12:20:42.384Z,36.05
2018-07-17T12:21:42.320Z,35.59
2018-07-17T12:22:42.259Z,34.89
2018-07-17T12:23:42.194Z,34.51
2018-07-17T12:24:42.133Z,35.10
2018-07-17T12:25:42.069Z,35.72
2018-07-17T12:26:42.022Z,33.95
2018-07-17T12:27:41.959Z,34.70
2018-07-17T12:28:41.898Z,34.99
2018-07-17T12:29:41.823Z,35.28
2018-07-17T12:30:41.772Z,35.87
2018-07-17T12:31:41.710Z,36.69
2018-07-17T12:32:41.658Z,35.78
2018-07-17T12:33:41.584Z,35.97
2018-07-17T12:34:41.520Z,35.44
2018-07-17T12:35:41.461Z,35.82
2018-07-17T12:36:41.398Z,35.46
2018-07-17T12:37:41.335Z,34.78
2018-07-17T12:38:41.271Z,34.31
2018-07-17T12:39:41.212Z,33.92
2018-07-17T12:40:41.148Z,34.59
2018-07-17T12:41:41.087Z,34.28
2018-07-17T12:42:41.023Z,34.61
2018-07-17T12:43:40.959Z,35.57
2018-07-17T12:44:40.900Z,35.97
2018-07-17T12:45:40.835Z,35.28
2018-07-17T12:46:40.772Z,36.20
2018-07-17T12:47:40.712Z,35.15
2018-07-17T12:48:40.649Z,34.66
2018-07-17T12:49:40.587Z,34.46
2018-07-17T12:50:40.525Z,34.63
2018-07-17T12:51:40.463Z,34.72